Time;durP1;ratioP1;P1;durP2;ratioP2;P2;SDS_P1;SDS_P2;PMS_P1;PMS_P2;Temp;Humidity;BMP_temperature;BMP_pressure;BME280_temperature;BME280_humidity;BME280_pressure;Samples;Min_cycle;Max_cycle;Signal;HPM_P1;HPM_P2
2022/05/02 00:01:16;;;;;;;23.92;16.08;;;;;;;4.17;93.58;102332.69;5093056;28;20043;-69
2022/05/02 00:03:42;;;;;;;25.42;17.20;;;;;;;4.17;94.16;102328.25;5111460;28;20421;-69
2022/05/02 00:06:08;;;;;;;24.40;15.57;;;;;;;4.14;94.43;102325.75;5092792;28;20067;-70
2022/05/02 00:08:33;;;;;;;24.08;17.00;;;;;;;4.12;94.32;102334.63;5111716;28;20032;-70
2022/05/02 00:10:59;;;;;;;21.40;16.27;;;;;;;4.11;94.46;102335.56;5092405;28;20062;-71
2022/05/02 00:13:24;;;;;;;29.20;18.33;;;;;;;4.08;94.80;102331.25;5093255;28;20027;-70
2022/05/02 00:15:49;;;;;;;26.48;16.98;;;;;;;4.06;95.31;102333.09;5111735;28;20036;-69
2022/05/02 00:18:15;;;;;;;23.85;15.75;;;;;;;4.03;95.10;102335.84;5110557;28;20028;-70
2022/05/02 00:20:41;;;;;;;23.52;15.02;;;;;;;4.00;95.26;102334.19;5111386;28;20337;-71
2022/05/02 00:23:08;;;;;;;24.05;15.07;;;;;;;3.97;95.62;102325.53;5110906;28;20052;-70
2022/05/02 00:25:34;;;;;;;23.95;16.45;;;;;;;3.95;95.22;102332.66;5092995;28;20115;-70
2022/05/02 00:28:00;;;;;;;23.15;14.90;;;;;;;3.92;95.41;102325.72;5110916;28;20184;-76
2022/05/02 00:30:27;;;;;;;21.13;14.38;;;;;;;3.89;95.25;102325.84;5111409;28;20052;-69
2022/05/02 00:32:53;;;;;;;22.95;14.38;;;;;;;3.87;95.19;102320.63;5111400;28;20045;-70
2022/05/02 00:35:19;;;;;;;23.17;16.00;;;;;;;3.85;95.10;102330.38;5110485;28;20036;-70
2022/05/02 00:37:44;;;;;;;19.10;14.07;;;;;;;3.81;94.88;102320.88;5111416;28;20023;-70
2022/05/02 00:40:13;;;;;;;20.60;14.68;;;;;;;3.79;94.76;102325.38;5092289;28;20513;-69
2022/05/02 00:42:39;;;;;;;22.75;14.55;;;;;;;3.77;94.34;102318.44;5111120;28;20032;-69
2022/05/02 00:45:07;;;;;;;20.33;14.35;;;;;;;3.73;94.29;102316.81;5091994;28;20531;-70
2022/05/02 00:47:32;;;;;;;21.65;13.88;;;;;;;3.71;94.16;102325.63;5110871;28;20023;-70
2022/05/02 00:49:58;;;;;;;18.98;12.60;;;;;;;3.70;94.09;102315.16;5110641;28;20073;-70
2022/05/02 00:52:23;;;;;;;19.90;13.98;;;;;;;3.68;94.56;102319.63;5110208;28;20436;-69
2022/05/02 00:54:49;;;;;;;17.08;13.10;;;;;;;3.65;94.39;102317.97;5110669;28;20051;-70
2022/05/02 00:57:16;;;;;;;19.38;14.32;;;;;;;3.63;94.78;102316.34;5091906;28;20055;-70
2022/05/02 00:59:42;;;;;;;20.98;14.18;;;;;;;3.62;95.29;102310.19;5092257;28;20318;-70
2022/05/02 01:02:10;;;;;;;23.23;13.90;;;;;;;3.58;95.10;102303.31;5091643;28;20072;-69
2022/05/02 01:04:36;;;;;;;19.15;13.50;;;;;;;3.57;95.01;102306.00;5110724;28;20616;-69
2022/05/02 01:07:19;;;;;;;20.65;13.18;;;;;;;3.55;94.59;102303.44;5092462;28;20134;-70
2022/05/02 01:09:47;;;;;;;18.50;12.00;;;;;;;3.52;94.47;102301.78;5092487;28;20043;-69
2022/05/02 01:12:25;;;;;;;17.25;11.60;;;;;;;3.50;94.46;102302.75;5091569;28;20023;-69
2022/05/02 01:14:55;;;;;;;16.10;11.63;;;;;;;3.48;94.42;102308.09;5092509;28;20059;-70
2022/05/02 01:17:21;;;;;;;18.00;12.13;;;;;;;3.47;94.32;102302.88;5109921;28;20027;-69
2022/05/02 01:19:48;;;;;;;17.08;11.25;;;;;;;3.45;94.04;102302.06;5092513;28;20058;-69
2022/05/02 01:22:13;;;;;;;18.92;11.98;;;;;;;3.43;94.13;102296.84;5110044;28;20119;-69
2022/05/02 01:24:41;;;;;;;18.67;13.18;;;;;;;3.45;94.12;102299.41;5110395;28;20169;-69
2022/05/02 01:27:08;;;;;;;14.30;9.60;;;;;;;3.42;94.62;102302.16;5109882;28;20032;-70
2022/05/02 01:29:35;;;;;;;17.77;11.57;;;;;;;3.39;94.61;102297.03;5110100;28;20035;-69
2022/05/02 01:32:06;;;;;;;12.88;9.52;;;;;;;3.35;94.04;102297.13;5107624;28;20144;-70
2022/05/02 01:34:34;;;;;;;21.27;10.52;;;;;;;3.32;93.64;102294.63;5108494;28;20193;-70
2022/05/02 01:37:01;;;;;;;14.85;11.15;;;;;;;3.31;93.86;102287.66;5108822;28;20103;-70
2022/05/02 01:39:26;;;;;;;14.38;10.68;;;;;;;3.30;94.21;102288.56;5108378;28;20138;-70
2022/05/02 01:41:52;;;;;;;13.27;9.10;;;;;;;3.31;94.55;102289.41;5108595;28;20407;-70
2022/05/02 01:44:17;;;;;;;16.45;11.00;;;;;;;3.29;94.21;102286.84;5109360;28;20145;-70
2022/05/02 01:46:43;;;;;;;13.95;9.85;;;;;;;3.27;94.19;102279.91;5108415;28;20036;-69
2022/05/02 01:49:08;;;;;;;14.15;10.23;;;;;;;3.22;93.95;102284.50;5109726;28;20108;-75
2022/05/02 01:51:34;;;;;;;13.05;9.48;;;;;;;3.21;94.19;102290.66;5091214;28;20100;-70
2022/05/02 01:53:59;;;;;;;16.38;10.70;;;;;;;3.18;94.51;102281.13;5108555;28;20122;-69
2022/05/02 01:56:25;;;;;;;14.13;10.48;;;;;;;3.16;94.74;102286.47;5109125;28;20051;-69
2022/05/02 01:58:50;;;;;;;12.05;9.30;;;;;;;3.15;94.27;102283.84;5107710;28;20401;-69
2022/05/02 02:01:16;;;;;;;15.80;10.32;;;;;;;3.14;94.68;102283.00;5106900;28;20131;-70
2022/05/02 02:03:41;;;;;;;13.77;9.90;;;;;;;3.14;94.63;102290.03;5108149;28;20031;-69
2022/05/02 02:06:07;;;;;;;16.10;11.35;;;;;;;3.12;94.94;102282.22;5090960;28;20131;-69
2022/05/02 02:08:35;;;;;;;14.32;9.68;;;;;;;3.12;95.38;102276.06;5108678;28;20035;-70
2022/05/02 02:11:05;;;;;;;15.52;9.77;;;;;;;3.10;95.28;102278.75;5109248;28;20027;-70
2022/05/02 02:13:31;;;;;;;14.18;10.52;;;;;;;3.10;94.74;102275.28;5108570;28;20320;-69
2022/05/02 02:15:57;;;;;;;13.57;9.48;;;;;;;3.08;94.78;102277.97;5107548;28;20038;-71
2022/05/02 02:18:23;;;;;;;14.43;9.93;;;;;;;3.07;94.77;102278.88;5107179;28;20379;-70
2022/05/02 02:20:51;;;;;;;11.75;8.73;;;;;;;3.05;95.05;102277.22;5109048;28;20028;-70
2022/05/02 02:23:18;;;;;;;14.93;9.45;;;;;;;3.04;94.96;102278.97;5108424;28;20464;-70
2022/05/02 02:25:43;;;;;;;12.05;8.63;;;;;;;3.03;94.84;102277.28;5107515;28;20043;-70
2022/05/02 02:28:09;;;;;;;11.50;9.10;;;;;;;3.00;94.92;102280.88;5108790;28;20092;-70
2022/05/02 02:30:35;;;;;;;11.57;8.90;;;;;;;2.98;94.94;102269.53;5108599;28;20059;-70
2022/05/02 02:33:01;;;;;;;12.88;8.60;;;;;;;2.96;94.63;102274.00;5109157;28;20054;-70
2022/05/02 02:35:29;;;;;;;11.98;8.57;;;;;;;2.94;94.50;102272.34;5108294;28;20325;-69
2022/05/02 02:37:54;;;;;;;12.93;9.10;;;;;;;2.91;94.26;102275.06;5090586;28;20031;-69
2022/05/02 02:40:20;;;;;;;15.57;9.13;;;;;;;2.89;94.12;102271.66;5089546;28;20035;-69
2022/05/02 02:42:46;;;;;;;12.35;8.88;;;;;;;2.87;94.14;102268.22;5090163;28;20456;-69
2022/05/02 02:45:12;;;;;;;11.27;9.05;;;;;;;2.83;94.16;102273.56;5090643;28;20035;-70
2022/05/02 02:47:37;;;;;;;17.95;10.40;;;;;;;2.81;93.99;102269.31;5108278;28;20439;-70
2022/05/02 02:50:03;;;;;;;12.32;8.40;;;;;;;2.79;94.08;102271.09;5090439;28;20066;-69
2022/05/02 02:52:29;;;;;;;18.42;10.48;;;;;;;2.77;94.14;102265.06;5108300;28;20074;-70
2022/05/02 02:54:54;;;;;;;9.85;7.75;;;;;;;2.75;94.54;102262.47;5090400;28;20032;-69
2022/05/02 02:57:20;;;;;;;10.57;8.73;;;;;;;2.72;94.43;102257.34;5072710;28;20032;-70
2022/05/02 02:59:45;;;;;;;12.85;9.02;;;;;;;2.70;94.37;102258.28;5108854;28;20096;-69
2022/05/02 03:02:11;;;;;;;11.90;8.90;;;;;;;2.69;94.58;102267.94;5090348;28;20096;-69
2022/05/02 03:07:25;;;;;;;12.13;8.73;;;;;;;2.65;94.25;102256.66;5108373;28;20081;-70
2022/05/02 03:09:51;;;;;;;11.07;8.63;;;;;;;2.62;94.22;102254.16;5089885;28;20040;-70
2022/05/02 03:12:18;;;;;;;12.45;9.68;;;;;;;2.61;93.98;102256.84;5091094;28;20040;-70
2022/05/02 03:14:43;;;;;;;13.50;9.10;;;;;;;2.59;94.28;102253.41;5112437;28;20099;-69
2022/05/02 03:17:09;;;;;;;13.90;9.73;;;;;;;2.60;94.65;102255.13;5113054;28;20114;-69
2022/05/02 03:19:35;;;;;;;12.82;8.55;;;;;;;2.59;95.17;102254.25;5111756;28;20047;-69
2022/05/02 03:22:00;;;;;;;13.25;8.88;;;;;;;2.57;94.98;102250.84;5093859;28;20210;-70
2022/05/02 03:24:26;;;;;;;12.02;8.68;;;;;;;2.55;94.71;102254.41;5093390;28;20032;-70
2022/05/02 03:26:51;;;;;;;12.35;9.18;;;;;;;2.53;94.40;102254.47;5112505;28;20049;-69
2022/05/02 03:29:16;;;;;;;13.35;9.15;;;;;;;2.50;94.28;102244.06;5093850;28;20032;-69
2022/05/02 03:31:42;;;;;;;12.27;9.40;;;;;;;2.49;94.46;102255.47;5043209;28;20476;-70
2022/05/02 03:34:07;;;;;;;14.80;9.68;;;;;;;2.49;94.61;102246.75;5073184;28;20170;-70
2022/05/02 03:36:34;;;;;;;16.90;10.57;;;;;;;2.47;94.77;102244.19;5091147;28;20382;-69
2022/05/02 03:38:59;;;;;;;12.98;9.35;;;;;;;2.44;94.81;102245.13;5073029;28;20484;-70
2022/05/02 03:41:24;;;;;;;13.18;9.40;;;;;;;2.45;94.61;102246.84;5072037;28;20064;-71
2022/05/02 03:43:50;;;;;;;14.20;8.95;;;;;;;2.43;94.75;102251.31;5091789;28;20364;-69
2022/05/02 03:46:15;;;;;;;13.50;8.63;;;;;;;2.41;94.70;102247.88;5039727;28;20213;-70
2022/05/02 03:48:40;;;;;;;15.00;9.65;;;;;;;2.39;94.80;102241.81;5090741;28;20041;-69
2022/05/02 03:51:07;;;;;;;12.18;8.82;;;;;;;2.38;94.75;102244.50;5091462;28;20068;-69
2022/05/02 03:53:32;;;;;;;13.32;9.73;;;;;;;2.37;94.84;102242.78;5072639;28;20119;-69
2022/05/02 03:55:57;;;;;;;12.30;9.73;;;;;;;2.37;94.92;102248.03;5072443;28;20418;-70
2022/05/02 03:58:23;;;;;;;14.50;8.80;;;;;;;2.36;94.76;102244.53;5091266;28;20409;-75
2022/05/02 04:00:48;;;;;;;16.80;9.52;;;;;;;2.37;94.92;102251.50;5072274;28;20040;-70
2022/05/02 04:03:14;;;;;;;12.15;8.52;;;;;;;2.37;95.40;102251.50;5072931;28;20402;-70
2022/05/02 04:05:40;;;;;;;13.45;9.52;;;;;;;2.36;95.25;102249.81;5090324;28;20036;-70
2022/05/02 04:08:05;;;;;;;13.10;8.80;;;;;;;2.35;94.69;102250.69;5090769;28;20090;-69
2022/05/02 04:10:31;;;;;;;13.10;9.20;;;;;;;2.35;94.54;102255.97;5072122;28;20035;-70
2022/05/02 04:12:56;;;;;;;14.52;9.77;;;;;;;2.35;94.42;102248.06;5091131;28;20105;-69
2022/05/02 04:15:22;;;;;;;15.52;9.73;;;;;;;2.36;94.79;102249.81;5091046;28;20024;-69
2022/05/02 04:17:47;;;;;;;12.10;8.57;;;;;;;2.37;94.76;102248.88;5055298;28;20135;-69
2022/05/02 04:20:12;;;;;;;12.60;9.60;;;;;;;2.37;94.93;102254.13;5090780;28;20035;-69
2022/05/02 04:22:40;;;;;;;13.07;10.13;;;;;;;2.39;95.37;102259.31;5089956;28;20028;-70
2022/05/02 04:25:05;;;;;;;18.42;9.05;;;;;;;2.40;95.57;102258.41;5090668;28;20028;-70
2022/05/02 04:27:31;;;;;;;13.55;9.95;;;;;;;2.39;95.79;102252.31;5090271;28;20051;-69
2022/05/02 04:29:56;;;;;;;12.80;9.45;;;;;;;2.40;96.00;102258.41;5073895;28;20090;-70
2022/05/02 04:32:22;;;;;;;13.63;9.20;;;;;;;2.38;95.98;102255.00;5111095;28;20428;-70
2022/05/02 04:34:47;;;;;;;14.00;10.10;;;;;;;2.39;95.99;102262.81;5091896;28;20178;-70
2022/05/02 04:37:13;;;;;;;13.93;9.05;;;;;;;2.42;95.96;102254.00;5092636;28;20111;-69
2022/05/02 04:39:38;;;;;;;14.95;9.32;;;;;;;2.45;95.97;102257.38;5110153;28;20059;-69
2022/05/02 04:42:04;;;;;;;12.82;8.73;;;;;;;2.49;96.34;102259.88;5092318;28;20024;-70
2022/05/02 04:44:31;;;;;;;14.40;9.27;;;;;;;2.51;96.81;102258.06;5091836;28;20501;-76
2022/05/02 04:46:56;;;;;;;12.20;9.20;;;;;;;2.53;96.82;102264.97;5110978;28;20130;-70
2022/05/02 04:49:22;;;;;;;10.88;8.65;;;;;;;2.57;96.83;102263.13;5110759;28;20352;-69
2022/05/02 04:51:47;;;;;;;15.98;9.93;;;;;;;2.61;96.83;102262.09;5110181;28;20892;-70
2022/05/02 04:54:12;;;;;;;15.35;9.52;;;;;;;2.67;97.17;102266.28;5092109;28;20429;-70
2022/05/02 04:56:38;;;;;;;13.88;10.55;;;;;;;2.71;97.52;102268.75;5091378;28;20545;-70
2022/05/02 04:59:03;;;;;;;12.63;8.82;;;;;;;2.75;97.72;102261.63;5110839;28;20524;-70
2022/05/02 05:01:29;;;;;;;12.98;9.43;;;;;;;2.82;97.87;102264.00;5092228;28;20119;-70
2022/05/02 05:03:54;;;;;;;15.23;10.05;;;;;;;2.90;98.32;102262.88;5091622;28;20031;-70
2022/05/02 05:06:20;;;;;;;15.38;10.30;;;;;;;2.98;98.33;102263.44;5092321;28;20394;-70
2022/05/02 05:08:45;;;;;;;14.27;10.05;;;;;;;3.06;98.49;102266.66;5109886;28;20558;-69
2022/05/02 05:11:23;;;;;;;14.82;10.10;;;;;;;3.15;98.86;102265.44;5110037;28;20085;-70
2022/05/02 05:17:21;;;;;;;14.85;9.43;;;;;;;3.40;99.52;102261.91;5110020;28;20046;-70
2022/05/02 05:20:08;;;;;;;13.95;9.32;;;;;;;3.51;100.00;102262.38;5091233;28;20352;-70
2022/05/02 05:22:33;;;;;;;16.27;11.95;;;;;;;3.63;100.00;102276.84;5109865;28;20092;-76
2022/05/02 05:24:58;;;;;;;17.17;12.60;;;;;;;3.73;100.00;102272.06;5110061;28;20035;-69
2022/05/02 05:28:15;;;;;;;25.38;14.90;;;;;;;3.87;100.00;102269.75;5110196;28;20110;-69
2022/05/02 05:30:44;;;;;;;20.67;13.88;;;;;;;4.02;100.00;102269.13;5054413;28;20159;-69
2022/05/02 05:33:50;;;;;;;22.88;14.13;;;;;;;4.16;100.00;102265.94;5110122;28;20101;-69
2022/05/02 05:36:34;;;;;;;25.27;15.55;;;;;;;4.29;100.00;102266.31;5090926;28;20122;-69
2022/05/02 05:39:08;;;;;;;20.30;13.73;;;;;;;4.41;100.00;102265.78;5091414;28;20052;-69
2022/05/02 05:41:53;;;;;;;23.55;14.48;;;;;;;4.54;100.00;102270.56;5109940;28;20034;-70
2022/05/02 05:44:40;;;;;;;25.92;15.80;;;;;;;4.67;100.00;102266.47;5109810;28;20023;-69
2022/05/02 05:47:51;;;;;;;24.10;14.75;;;;;;;4.86;100.00;102268.31;5109970;28;20027;-69
2022/05/02 05:50:24;;;;;;;23.33;14.48;;;;;;;5.01;100.00;102270.25;5070421;28;20404;-70
2022/05/02 05:53:13;;;;;;;20.08;13.93;;;;;;;5.19;100.00;102270.38;5108855;28;20539;-70
2022/05/02 05:56:09;;;;;;;22.35;14.75;;;;;;;5.35;100.00;102271.41;5109528;28;20114;-76
2022/05/02 05:58:48;;;;;;;21.95;14.68;;;;;;;5.50;100.00;102269.84;5091052;28;20041;-69
2022/05/02 06:01:15;;;;;;;23.52;15.63;;;;;;;5.67;100.00;102274.31;5090954;28;20517;-70
2022/05/02 06:03:58;;;;;;;20.75;13.77;;;;;;;5.81;100.00;102274.53;5108993;28;20035;-70
2022/05/02 06:06:27;;;;;;;18.67;12.95;;;;;;;5.99;100.00;102271.97;5109492;28;20027;-70
2022/05/02 06:08:56;;;;;;;28.05;13.88;;;;;;;6.15;100.00;102269.41;5090390;28;20023;-70
2022/05/02 06:11:24;;;;;;;23.70;13.05;;;;;;;6.32;100.00;102268.59;5109810;28;20119;-70
2022/05/02 06:13:55;;;;;;;18.35;12.18;;;;;;;6.48;100.00;102274.00;5108907;28;20031;-70
2022/05/02 06:19:15;;;;;;;16.17;12.13;;;;;;;6.80;98.22;102280.25;5109758;28;20171;-69
2022/05/02 06:21:44;;;;;;;15.05;11.48;;;;;;;6.97;96.08;102275.88;5109025;28;20160;-75
2022/05/02 06:24:11;;;;;;;15.77;11.75;;;;;;;7.11;94.29;102283.13;5109245;28;20118;-70
2022/05/02 06:26:38;;;;;;;16.90;11.05;;;;;;;7.24;93.00;102276.22;5109505;28;20031;-70
2022/05/02 06:29:07;;;;;;;18.48;11.75;;;;;;;7.37;92.15;102273.75;5108664;28;20065;-70
2022/05/02 06:31:36;;;;;;;14.32;10.68;;;;;;;7.53;92.22;102282.56;5109413;28;20054;-69
2022/05/02 06:34:03;;;;;;;15.00;10.95;;;;;;;7.69;92.18;102274.66;5108582;28;20107;-69
2022/05/02 06:37:13;;;;;;;18.65;10.60;;;;;;;7.89;91.13;102281.47;5091249;28;20115;-70
2022/05/02 06:40:11;;;;;;;13.40;10.00;;;;;;;8.05;88.71;102280.63;5006586;28;20037;-68
2022/05/02 06:42:50;;;;;;;14.45;10.27;;;;;;;8.21;87.61;102276.16;5109320;28;20455;-69
2022/05/02 06:45:25;;;;;;;17.30;10.70;;;;;;;8.36;86.30;102270.88;5090953;28;20055;-70
2022/05/02 06:48:21;;;;;;;13.73;10.32;;;;;;;8.48;85.59;102267.56;5112770;28;20436;-71
2022/05/02 06:50:51;;;;;;;14.68;10.10;;;;;;;8.61;84.69;102271.19;5094211;28;20389;-70
2022/05/02 06:53:39;;;;;;;14.07;9.95;;;;;;;8.74;83.23;102268.66;5113098;28;20024;-70
2022/05/02 06:56:14;;;;;;;16.10;10.18;;;;;;;8.90;81.97;102267.75;5112603;28;20192;-69
2022/05/02 06:58:57;;;;;;;17.00;10.25;;;;;;;9.00;81.03;102276.81;5113217;28;20019;-68
2022/05/02 07:01:47;;;;;;;11.95;10.18;;;;;;;9.19;81.35;102273.91;5094610;28;20070;-68
2022/05/02 07:04:20;;;;;;;12.50;10.02;;;;;;;9.34;79.74;102272.97;5103646;28;20040;-68
2022/05/02 07:07:11;;;;;;;14.93;10.48;;;;;;;9.44;78.64;102281.19;5092739;28;20100;-70
2022/05/02 07:09:52;;;;;;;18.25;10.52;;;;;;;9.58;78.62;102276.81;5070902;28;20100;-70
2022/05/02 07:12:19;;;;;;;12.93;10.15;;;;;;;9.74;78.92;102277.53;5089718;28;20181;-70
2022/05/02 07:15:14;;;;;;;16.15;10.65;;;;;;;9.87;75.82;102273.13;5071260;28;20065;-68
2022/05/02 07:17:42;;;;;;;12.60;9.63;;;;;;;10.04;76.43;102279.16;5089270;28;20032;-68
2022/05/02 07:20:29;;;;;;;13.27;9.35;;;;;;;10.23;74.55;102277.00;5070498;28;20031;-69
2022/05/02 07:23:36;;;;;;;13.40;9.45;;;;;;;10.48;74.37;102274.53;5088333;28;20102;-69
2022/05/02 07:26:14;;;;;;;15.50;9.73;;;;;;;10.72;72.75;102283.53;5088492;28;20582;-70
2022/05/02 07:28:52;;;;;;;16.80;9.13;;;;;;;10.86;70.25;102279.91;5089420;28;20046;-71
2022/05/02 07:31:19;;;;;;;11.13;8.95;;;;;;;11.06;69.28;102281.19;5070271;28;20591;-70
2022/05/02 07:33:47;;;;;;;14.68;9.27;;;;;;;11.25;69.25;102274.56;5070429;28;20093;-70
2022/05/02 07:36:18;;;;;;;11.35;9.00;;;;;;;11.47;69.17;102271.22;5070333;28;20036;-69
2022/05/02 07:38:51;;;;;;;14.55;9.57;;;;;;;11.57;66.91;102274.94;5089537;28;20040;-70
2022/05/02 07:41:23;;;;;;;14.43;8.85;;;;;;;11.75;67.14;102278.09;5089146;28;20028;-69
2022/05/02 07:44:04;;;;;;;13.73;9.02;;;;;;;11.90;65.17;102281.44;5088871;28;20032;-70
2022/05/02 07:46:43;;;;;;;;;;;;;;;12.07;66.14;102280.22;5089159;28;20052;-73
2022/05/02 07:49:10;;;;;;;10.55;8.38;;;;;;;12.24;65.56;102279.00;5088344;28;19915;-72
2022/05/02 07:51:42;;;;;;;16.40;8.07;;;;;;;12.42;60.33;102281.22;5089399;28;20059;-72
2022/05/02 07:54:14;;;;;;;8.98;7.68;;;;;;;12.50;60.82;102284.19;5088893;28;20036;-69
2022/05/02 07:56:41;;;;;;;9.90;8.05;;;;;;;12.61;61.51;102281.53;5089488;28;20024;-72
2022/05/02 07:59:08;;;;;;;13.18;7.75;;;;;;;12.67;58.56;102281.06;5082895;28;20074;-70
2022/05/02 08:01:34;;;;;;;10.25;7.68;;;;;;;12.68;54.92;102276.59;5086793;28;20039;-69
2022/05/02 08:04:00;;;;;;;9.73;7.53;;;;;;;12.83;56.53;102269.19;5090410;28;20032;-67
2022/05/02 08:06:37;;;;;;;8.90;7.95;;;;;;;13.24;57.66;102278.44;5091086;28;20492;-69
2022/05/02 08:09:17;;;;;;;15.68;8.30;;;;;;;13.66;55.33;102268.00;5090620;28;20141;-70
2022/05/02 08:12:21;;;;;;;12.23;7.38;;;;;;;13.78;50.77;102274.19;5091222;28;20032;-70
2022/05/02 08:15:11;;;;;;;9.00;7.65;;;;;;;14.21;51.18;102272.47;5045604;28;20062;-68
2022/05/02 08:17:51;;;;;;;10.30;7.38;;;;;;;14.60;49.88;102270.06;5091132;28;20047;-69
2022/05/02 08:20:24;;;;;;;11.13;7.53;;;;;;;14.94;47.70;102269.88;5090440;28;20423;-68
2022/05/02 08:28:53;;;;;;;7.03;5.93;;;;;;;16.02;44.07;102277.31;5091399;28;20042;-69
2022/05/02 08:31:55;;;;;;;11.65;6.28;;;;;;;16.79;45.72;102273.88;5103620;28;20043;-69
2022/05/02 08:34:24;;;;;;;8.38;5.63;;;;;;;17.13;41.73;102268.84;5092411;28;20126;-68
2022/05/02 08:36:52;;;;;;;9.00;5.38;;;;;;;17.53;40.56;102270.34;5111392;28;20030;-68
2022/05/02 08:39:26;;;;;;;9.45;5.40;;;;;;;17.23;39.23;102263.44;5110434;28;20027;-68
2022/05/02 08:42:18;;;;;;;9.07;5.50;;;;;;;17.05;42.11;102266.88;5092713;28;20055;-68
2022/05/02 08:45:14;;;;;;;9.93;6.05;;;;;;;17.20;40.69;102267.25;5092869;28;20100;-69
2022/05/02 08:48:16;;;;;;;8.90;6.07;;;;;;;17.40;40.82;102270.69;5092602;28;20093;-69
2022/05/02 08:50:50;;;;;;;12.20;6.40;;;;;;;17.03;39.28;102265.34;5110934;28;20023;-74
2022/05/02 08:53:24;;;;;;;7.93;6.28;;;;;;;17.30;41.58;102269.03;5092008;28;20444;-73
2022/05/02 08:56:21;;;;;;;7.85;6.07;;;;;;;17.45;40.48;102270.22;5092824;28;20076;-75
2022/05/02 08:59:23;;;;;;;6.97;5.72;;;;;;;18.14;39.13;102260.75;5110870;28;20019;-72
2022/05/02 09:02:07;;;;;;;8.70;6.10;;;;;;;18.52;38.54;102257.00;5092277;28;20115;-70
2022/05/02 09:05:05;;;;;;;10.90;5.47;;;;;;;19.34;37.73;102258.34;5092313;28;20027;-70
2022/05/02 09:08:02;;;;;;;9.60;5.47;;;;;;;19.84;34.62;102259.38;5092000;28;20035;-71
2022/05/02 09:10:53;;;;;;;7.78;5.25;;;;;;;20.08;31.68;102255.00;5109439;28;20447;-70
2022/05/02 09:13:35;;;;;;;8.35;5.40;;;;;;;21.49;32.82;102256.41;5091330;28;20024;-72
2022/05/02 09:16:01;;;;;;;11.18;5.20;;;;;;;21.98;31.93;102252.59;5092484;28;20161;-73
2022/05/02 09:18:46;;;;;;;8.02;5.40;;;;;;;22.57;29.92;102253.78;5109862;28;20108;-72
2022/05/02 09:21:33;;;;;;;7.38;4.97;;;;;;;23.76;27.62;102256.44;5091149;28;20475;-71
2022/05/02 09:24:10;;;;;;;6.03;4.45;;;;;;;24.05;25.85;102250.06;5091711;28;20066;-69
2022/05/02 09:26:58;;;;;;;6.75;4.22;;;;;;;24.40;25.64;102252.88;5110057;28;20036;-71
2022/05/02 09:30:14;;;;;;;5.50;4.22;;;;;;;24.25;25.82;102243.97;5109725;28;20092;-71
2022/05/02 09:32:59;;;;;;;6.00;4.72;;;;;;;23.75;26.97;102242.00;5049049;28;20147;-72
2022/05/02 09:35:31;;;;;;;7.00;5.18;;;;;;;23.24;27.33;102239.31;5090756;28;20031;-71
2022/05/02 09:37:59;;;;;;;6.22;4.85;;;;;;;23.86;26.48;102237.13;5109827;28;20027;-69
2022/05/02 09:40:36;;;;;;;5.20;4.22;;;;;;;24.00;26.96;102240.81;5073854;28;20027;-69
2022/05/02 09:49:56;;;;;;;5.93;5.17;;;;;;;24.37;26.59;102238.84;5109091;28;20393;-70
2022/05/02 09:52:53;;;;;;;5.50;5.00;;;;;;;25.08;26.26;102232.38;5091231;28;20111;-71
2022/05/02 09:58:53;;;;;;;6.10;4.90;;;;;;;24.04;25.78;102231.25;5096819;28;20448;-70
2022/05/02 10:01:26;;;;;;;5.95;4.57;;;;;;;24.10;26.00;102236.72;5109301;28;20383;-71
2022/05/02 10:04:19;;;;;;;8.35;5.20;;;;;;;23.69;27.87;102228.34;5109599;28;20024;-71
2022/05/02 10:06:49;;;;;;;8.50;5.75;;;;;;;23.47;27.67;102231.06;5091467;28;20444;-70
2022/05/02 10:09:27;;;;;;;6.45;5.38;;;;;;;23.53;24.97;102229.44;5109261;28;20020;-72
2022/05/02 10:12:06;;;;;;;6.78;5.90;;;;;;;23.67;26.66;102231.25;5109635;28;20145;-70
2022/05/02 10:14:50;;;;;;;7.10;5.95;;;;;;;24.20;25.72;102230.09;5109445;28;20028;-70
2022/05/02 10:17:48;;;;;;;10.15;6.38;;;;;;;23.56;27.26;102224.47;5109134;28;20051;-70
2022/05/02 10:20:18;;;;;;;7.15;6.30;;;;;;;23.19;26.61;102229.03;5036203;28;20144;-70
2022/05/02 10:23:10;;;;;;;7.15;6.20;;;;;;;24.10;27.30;102225.03;5109132;28;20093;-72
2022/05/02 10:25:41;;;;;;;8.20;6.43;;;;;;;24.11;28.46;102224.81;5109649;28;20107;-70
2022/05/02 10:28:24;;;;;;;8.30;5.97;;;;;;;24.72;26.18;102222.56;5109555;28;20032;-70
2022/05/02 10:31:02;;;;;;;9.05;6.07;;;;;;;24.47;25.59;102212.13;5109015;28;20092;-71
2022/05/02 10:33:46;;;;;;;7.28;5.60;;;;;;;25.16;25.75;102221.34;5108996;28;20130;-71
2022/05/02 10:36:12;;;;;;;9.57;5.82;;;;;;;24.57;25.88;102218.06;5109149;28;20046;-72
2022/05/02 10:38:54;;;;;;;10.63;6.10;;;;;;;24.86;26.08;102208.00;5109811;28;20190;-71
2022/05/02 10:41:27;;;;;;;9.57;6.20;;;;;;;24.35;26.71;102209.13;5090755;28;20077;-71
2022/05/02 10:44:00;;;;;;;8.95;5.32;;;;;;;25.20;22.89;102205.41;5109624;28;20032;-71
2022/05/02 10:46:28;;;;;;;7.30;5.60;;;;;;;25.16;24.71;102213.16;5109238;28;20098;-70
2022/05/02 10:49:06;;;;;;;11.52;5.72;;;;;;;25.61;25.58;102210.81;5090879;28;20044;-70
2022/05/02 10:52:13;;;;;;;7.30;5.50;;;;;;;26.25;24.54;102199.56;5108946;28;20116;-71
2022/05/02 10:54:55;;;;;;;8.40;5.45;;;;;;;26.11;25.21;102207.75;5109523;28;20042;-71
2022/05/02 10:57:51;;;;;;;7.40;5.35;;;;;;;26.50;24.13;102207.91;5108994;28;20049;-71
2022/05/02 11:00:17;;;;;;;7.43;5.43;;;;;;;25.88;24.94;102205.41;5108684;28;20020;-72
2022/05/02 11:03:05;;;;;;;6.88;5.55;;;;;;;25.16;26.17;102203.09;5109423;28;20071;-70
2022/05/02 11:05:45;;;;;;;9.80;5.20;;;;;;;24.76;26.75;102207.53;5090826;28;20039;-70
2022/05/02 11:08:12;;;;;;;8.43;5.68;;;;;;;25.17;26.59;102204.78;5109232;28;20027;-70
2022/05/02 11:10:50;;;;;;;8.15;5.55;;;;;;;25.28;26.72;102192.47;5108701;28;20035;-70
2022/05/02 11:13:25;;;;;;;10.60;5.25;;;;;;;24.94;27.24;102196.94;5090582;28;20035;-73
2022/05/02 11:16:06;;;;;;;7.43;5.35;;;;;;;24.77;26.57;102196.44;5090931;28;20051;-70
2022/05/02 11:21:49;;;;;;;7.65;5.25;;;;;;;24.75;26.75;102198.53;5108677;28;20502;-70
2022/05/02 11:24:33;;;;;;;7.43;5.38;;;;;;;24.35;26.94;102200.09;5090875;28;20058;-70
2022/05/02 11:27:21;;;;;;;7.68;5.03;;;;;;;24.40;27.50;102194.91;5109409;28;20023;-71
2022/05/02 11:30:06;;;;;;;9.02;5.07;;;;;;;24.80;26.66;102190.59;5074669;28;20104;-70
2022/05/02 11:32:46;;;;;;;6.20;4.93;;;;;;;24.87;26.97;102184.34;5108543;28;20476;-70
2022/05/02 11:35:16;;;;;;;6.55;5.28;;;;;;;24.51;27.34;102188.91;5113072;28;20061;-71
2022/05/02 11:37:41;;;;;;;6.28;4.82;;;;;;;24.67;27.76;102195.13;5112421;28;20149;-71
2022/05/02 11:40:09;;;;;;;6.45;5.57;;;;;;;24.74;27.05;102196.00;5112705;28;20086;-70
2022/05/02 11:42:40;;;;;;;6.43;4.63;;;;;;;24.52;28.23;102190.59;5112220;28;20031;-70
2022/05/02 11:45:17;;;;;;;8.20;4.22;;;;;;;24.47;27.43;102191.19;5112794;28;20044;-70
2022/05/02 11:47:48;;;;;;;8.63;4.93;;;;;;;24.38;27.39;102189.69;5112268;28;20042;-70
2022/05/02 11:50:14;;;;;;;7.35;5.32;;;;;;;23.70;27.77;102203.69;5112579;28;20040;-70
2022/05/02 11:52:43;;;;;;;7.70;5.10;;;;;;;23.87;28.56;102195.31;5093514;28;20088;-70
2022/05/02 11:55:10;;;;;;;6.95;5.35;;;;;;;23.93;28.64;102199.97;5112825;28;20059;-70
2022/05/02 11:57:43;;;;;;;6.55;5.18;;;;;;;23.74;28.68;102196.84;5112189;28;20119;-70
2022/05/02 12:00:12;;;;;;;10.90;5.50;;;;;;;23.99;28.22;102193.78;5112551;28;20095;-70
2022/05/02 12:02:37;;;;;;;7.05;5.50;;;;;;;24.26;28.29;102197.53;5111882;28;20114;-70
2022/05/02 12:05:24;;;;;;;5.85;4.97;;;;;;;24.31;27.33;102196.94;5112075;28;20119;-70
2022/05/02 12:07:57;;;;;;;9.00;5.68;;;;;;;24.46;27.14;102185.97;5097952;28;20035;-71
2022/05/02 12:10:39;;;;;;;7.38;5.15;;;;;;;24.63;26.91;102187.38;5111906;28;20431;-72
2022/05/02 12:13:08;;;;;;;7.63;5.03;;;;;;;25.16;25.64;102191.38;5112241;28;20091;-70
2022/05/02 12:15:52;;;;;;;5.93;4.88;;;;;;;24.80;25.88;102192.47;5111589;28;20023;-70
2022/05/02 12:18:17;;;;;;;6.70;5.45;;;;;;;24.75;26.41;102189.50;5112299;28;20036;-71